createdAt,value
2023-02-17T00:04:42.341Z,109.20
2023-02-17T00:09:50.025Z,112.00
2023-02-17T00:14:57.299Z,120.50
2023-02-17T00:19:59.105Z,119.00
2023-02-17T00:25:00.876Z,121.90
2023-02-17T00:30:02.692Z,117.60
2023-02-17T00:35:05.647Z,111.90
2023-02-17T00:40:07.983Z,113.00
2023-02-17T00:45:09.956Z,107.80
2023-02-17T00:50:11.689Z,98.70
2023-02-17T00:55:13.395Z,107.40
2023-02-17T01:00:15.705Z,107.10
2023-02-17T01:05:17.665Z,107.20
2023-02-17T01:10:21.570Z,107.60
2023-02-17T01:15:23.294Z,107.60
2023-02-17T01:20:25.040Z,99.80
2023-02-17T01:25:26.762Z,107.50
2023-02-17T01:30:31.216Z,109.70
2023-02-17T01:35:34.823Z,101.00
2023-02-17T01:40:36.539Z,98.90
2023-02-17T01:45:50.516Z,103.60
2023-02-17T01:51:03.046Z,108.20
2023-02-17T01:56:06.496Z,97.30
2023-02-17T02:01:08.736Z,101.40
2023-02-17T02:06:16.375Z,100.20
2023-02-17T02:11:18.162Z,91.10
2023-02-17T02:16:29.567Z,92.60
2023-02-17T02:21:46.677Z,98.00
2023-02-17T02:27:24.294Z,91.80
2023-02-17T02:32:55.165Z,91.20
2023-02-17T02:43:10.000Z,79.20
2023-02-17T02:48:12.113Z,91.10
2023-02-17T02:53:36.032Z,88.10
2023-02-17T02:59:16.252Z,91.00
2023-02-17T03:04:37.027Z,85.90
2023-02-17T03:09:40.756Z,88.80
2023-02-17T03:14:43.626Z,78.20
2023-02-17T03:19:47.633Z,82.40
2023-02-17T03:24:50.757Z,81.20
2023-02-17T03:29:53.146Z,75.40
2023-02-17T03:34:55.096Z,77.00
2023-02-17T03:39:59.108Z,80.10
2023-02-17T03:45:00.775Z,76.60
2023-02-17T03:55:04.193Z,74.90
2023-02-17T04:00:08.061Z,68.20
2023-02-17T04:05:14.720Z,74.00
2023-02-17T04:10:17.009Z,76.20
2023-02-17T04:15:18.823Z,73.30
2023-02-17T04:20:20.613Z,71.70
2023-02-17T04:25:23.474Z,84.20
2023-02-17T04:30:32.365Z,72.10
2023-02-17T04:35:34.030Z,73.40
2023-02-17T04:45:38.422Z,68.60
2023-02-17T04:50:40.381Z,67.80
2023-02-17T04:55:42.922Z,77.50
2023-02-17T05:00:47.215Z,68.30
2023-02-17T05:05:49.616Z,72.80
2023-02-17T05:10:52.556Z,76.40
2023-02-17T05:15:54.330Z,78.90
2023-02-17T05:20:55.964Z,74.40
2023-02-17T05:31:00.733Z,75.80
2023-02-17T05:36:05.772Z,80.90
2023-02-17T05:41:08.334Z,73.50
2023-02-17T05:46:10.411Z,79.00
2023-02-17T05:51:13.874Z,82.80
2023-02-17T05:56:15.603Z,73.20
2023-02-17T06:01:17.319Z,72.50
2023-02-17T06:06:19.467Z,70.20
2023-02-17T06:11:21.383Z,69.50
2023-02-17T06:16:23.510Z,78.70
2023-02-17T06:21:25.470Z,80.70
2023-02-17T06:26:27.210Z,73.80
2023-02-17T06:31:29.143Z,72.50
2023-02-17T06:36:30.939Z,80.90
2023-02-17T06:41:32.611Z,82.90
2023-02-17T06:51:44.335Z,108.30
2023-02-17T06:56:46.220Z,99.60
2023-02-17T07:01:49.838Z,83.40
2023-02-17T07:06:51.795Z,83.30
2023-02-17T07:11:53.517Z,83.60
2023-02-17T07:16:55.283Z,103.00
2023-02-17T07:21:57.114Z,72.70
2023-02-17T07:26:58.936Z,104.40
2023-02-17T07:32:00.690Z,76.60
2023-02-17T07:37:02.452Z,83.70
2023-02-17T07:42:05.200Z,82.60
2023-02-17T07:47:07.842Z,80.80
2023-02-17T07:52:09.632Z,98.10
2023-02-17T07:57:11.373Z,83.80
2023-02-17T08:02:13.067Z,76.10
2023-02-17T08:07:14.956Z,86.40
2023-02-17T08:12:42.392Z,78.10
2023-02-17T08:17:44.501Z,72.30
2023-02-17T08:22:46.208Z,69.40
2023-02-17T08:27:47.959Z,63.90
2023-02-17T08:32:49.684Z,75.30
2023-02-17T08:37:51.905Z,60.00
2023-02-17T08:42:53.649Z,60.40
2023-02-17T08:47:55.893Z,63.70
2023-02-17T08:52:58.802Z,61.20
2023-02-17T08:58:00.721Z,56.60
2023-02-17T09:03:02.446Z,56.60
2023-02-17T09:08:04.306Z,54.60
2023-02-17T09:13:06.060Z,52.30
2023-02-17T09:18:07.777Z,52.20
2023-02-17T09:23:09.533Z,49.50
2023-02-17T09:28:13.905Z,57.60
2023-02-17T09:33:15.610Z,48.50
2023-02-17T09:38:17.356Z,46.40
2023-02-17T09:43:25.116Z,43.40
2023-02-17T09:48:31.252Z,50.40
2023-02-17T09:54:01.028Z,48.60
2023-02-17T09:59:11.773Z,47.90
2023-02-17T10:04:21.244Z,47.30
2023-02-17T10:09:34.549Z,46.00
2023-02-17T10:14:51.902Z,46.10
2023-02-17T10:20:02.809Z,38.40
2023-02-17T10:25:16.500Z,50.00
2023-02-17T10:30:49.696Z,42.90
2023-02-17T10:35:54.343Z,38.70
2023-02-17T10:40:56.511Z,40.50
2023-02-17T10:46:02.424Z,35.40
2023-02-17T10:51:04.725Z,43.10
2023-02-17T10:56:17.428Z,40.30
2023-02-17T11:01:19.817Z,39.50
2023-02-17T11:06:22.591Z,40.00
2023-02-17T11:11:28.127Z,45.00
2023-02-17T11:16:39.760Z,36.10
2023-02-17T11:21:43.545Z,41.40
2023-02-17T11:27:05.195Z,37.80
2023-02-17T11:32:12.536Z,37.80
2023-02-17T11:37:14.463Z,37.30
2023-02-17T11:42:24.129Z,34.50
2023-02-17T11:47:43.226Z,37.80
2023-02-17T11:53:08.037Z,40.90
2023-02-17T11:58:27.975Z,36.30
2023-02-17T12:04:07.878Z,38.70
2023-02-17T12:09:35.169Z,33.90
2023-02-17T12:14:51.919Z,29.30
2023-02-17T12:20:09.143Z,34.60
2023-02-17T12:25:27.096Z,33.50
2023-02-17T12:30:46.221Z,36.10
2023-02-17T12:36:10.365Z,33.90
2023-02-17T12:41:22.668Z,35.40
2023-02-17T12:46:29.729Z,38.60
2023-02-17T12:52:10.889Z,43.10
2023-02-17T12:57:22.643Z,37.70
2023-02-17T13:02:26.366Z,39.00
2023-02-17T13:07:47.427Z,33.90
2023-02-17T13:13:05.213Z,44.80
2023-02-17T13:18:13.230Z,39.30
2023-02-17T13:23:30.634Z,40.40
2023-02-17T13:28:38.430Z,34.50
2023-02-17T13:33:49.286Z,38.00
2023-02-17T13:39:04.127Z,33.00
2023-02-17T13:44:38.538Z,28.10
2023-02-17T13:49:40.393Z,29.10
2023-02-17T13:54:51.945Z,27.40
2023-02-17T14:05:20.034Z,29.00
2023-02-17T14:10:25.232Z,32.40
2023-02-17T14:15:29.405Z,27.60
2023-02-17T14:20:36.518Z,33.30
2023-02-17T14:25:47.070Z,29.70
2023-02-17T14:30:49.537Z,28.70
2023-02-17T14:36:04.264Z,32.00
2023-02-17T14:41:09.268Z,29.80
2023-02-17T14:46:11.139Z,30.80
2023-02-17T14:51:16.142Z,35.20
2023-02-17T14:56:38.375Z,34.30
2023-02-17T15:01:40.197Z,32.20
2023-02-17T15:06:49.290Z,34.60
2023-02-17T15:11:51.818Z,43.30
2023-02-17T15:16:53.511Z,52.00
2023-02-17T15:21:57.131Z,47.10
2023-02-17T15:27:00.104Z,41.20
2023-02-17T15:32:04.949Z,47.40
2023-02-17T15:37:07.060Z,53.80
2023-02-17T15:42:19.207Z,52.40
2023-02-17T15:47:21.502Z,53.80
2023-02-17T15:52:23.191Z,50.00
2023-02-17T15:57:25.439Z,45.20
2023-02-17T16:02:27.497Z,58.80
2023-02-17T16:07:29.211Z,73.00
2023-02-17T16:12:31.622Z,77.40
2023-02-17T16:17:33.426Z,62.50
2023-02-17T16:22:35.197Z,84.90
2023-02-17T16:27:37.787Z,104.90
2023-02-17T16:32:39.513Z,74.20
2023-02-17T16:37:41.986Z,59.00
2023-02-17T16:42:43.866Z,80.10
2023-02-17T16:47:49.237Z,64.20
2023-02-17T16:52:52.891Z,44.00
2023-02-17T16:57:55.357Z,49.30
2023-02-17T17:02:58.758Z,47.80
2023-02-17T17:08:00.518Z,47.00
2023-02-17T17:13:02.247Z,32.90
2023-02-17T17:18:09.181Z,32.50
2023-02-17T17:23:14.862Z,31.40
2023-02-17T17:28:19.228Z,27.30
2023-02-17T17:33:20.869Z,25.10
2023-02-17T17:38:22.563Z,32.20
2023-02-17T17:43:27.118Z,23.10
2023-02-17T17:48:29.045Z,28.80
2023-02-17T17:53:30.840Z,26.00
2023-02-17T17:58:34.226Z,30.20
2023-02-17T18:03:36.535Z,32.90
2023-02-17T18:08:39.418Z,28.10
2023-02-17T18:13:43.972Z,31.30
2023-02-17T18:18:47.107Z,31.30
2023-02-17T18:23:52.235Z,31.00
2023-02-17T18:28:54.921Z,30.10
2023-02-17T18:33:59.989Z,30.10
2023-02-17T18:39:05.869Z,29.90
2023-02-17T18:44:08.235Z,33.10
2023-02-17T18:49:10.980Z,47.70
2023-02-17T18:54:15.256Z,47.70
2023-02-17T18:59:16.968Z,35.70
2023-02-17T19:04:18.588Z,27.40
2023-02-17T19:09:20.303Z,28.10
2023-02-17T19:14:22.082Z,22.90
2023-02-17T19:19:23.860Z,28.50
2023-02-17T19:24:25.806Z,22.90
2023-02-17T19:29:27.809Z,24.40
2023-02-17T19:34:31.625Z,31.90
2023-02-17T19:39:45.484Z,31.90
2023-02-17T19:44:48.487Z,22.30
2023-02-17T19:49:50.242Z,21.80
2023-02-17T19:55:01.169Z,22.50
2023-02-17T20:00:04.404Z,22.50
2023-02-17T20:05:08.816Z,15.70
2023-02-17T20:10:12.464Z,20.30
2023-02-17T20:15:14.677Z,14.30
2023-02-17T20:20:16.492Z,14.30
2023-02-17T20:25:18.457Z,19.20
2023-02-17T20:30:20.423Z,13.50
2023-02-17T20:35:22.221Z,17.40
2023-02-17T20:40:23.852Z,14.70
2023-02-17T20:45:25.991Z,18.70
2023-02-17T20:50:28.457Z,18.00
2023-02-17T20:55:30.522Z,14.40
2023-02-17T21:00:32.449Z,23.30
2023-02-17T21:05:34.679Z,37.60
2023-02-17T21:10:39.729Z,21.80
2023-02-17T21:15:41.364Z,15.40
2023-02-17T21:20:43.133Z,12.90
2023-02-17T21:25:46.240Z,15.80
2023-02-17T21:30:48.189Z,10.00
2023-02-17T21:35:53.068Z,17.40
2023-02-17T21:40:54.782Z,43.40
2023-02-17T21:45:56.513Z,22.80
2023-02-17T21:51:07.590Z,40.30
2023-02-17T21:56:10.172Z,56.20
2023-02-17T22:01:14.925Z,56.20
2023-02-17T22:06:20.126Z,7.50
2023-02-17T22:11:33.573Z,7.40
2023-02-17T22:16:38.654Z,7.20
2023-02-17T22:21:41.076Z,6.80
2023-02-17T22:26:43.346Z,6.10
2023-02-17T22:31:47.960Z,7.00
2023-02-17T22:36:49.841Z,8.60
2023-02-17T22:41:51.695Z,12.60
2023-02-17T22:46:53.328Z,8.00
2023-02-17T22:51:55.081Z,35.80
2023-02-17T22:56:56.857Z,11.80
2023-02-17T23:01:59.212Z,8.30
2023-02-17T23:07:00.890Z,10.40
2023-02-17T23:12:02.829Z,11.10
2023-02-17T23:17:11.388Z,11.10
